sensor_id;sensor_type;location;lat;lon;timestamp;P1;durP1;ratioP1;P2;durP2;ratioP2
13951;SDS011;39535;52.192;9.886;2023-03-23T00:00:47;2.80;;;1.30;;
13951;SDS011;39535;52.192;9.886;2023-03-23T00:03:13;1.13;;;1.00;;
13951;SDS011;39535;52.192;9.886;2023-03-23T00:05:39;1.20;;;1.10;;
13951;SDS011;39535;52.192;9.886;2023-03-23T00:08:06;2.80;;;1.60;;
13951;SDS011;39535;52.192;9.886;2023-03-23T00:10:34;1.70;;;1.10;;
13951;SDS011;39535;52.192;9.886;2023-03-23T00:13:02;1.03;;;0.97;;
13951;SDS011;39535;52.192;9.886;2023-03-23T00:15:29;1.50;;;1.23;;
13951;SDS011;39535;52.192;9.886;2023-03-23T00:17:58;2.23;;;1.33;;
13951;SDS011;39535;52.192;9.886;2023-03-23T00:20:27;1.63;;;1.13;;
13951;SDS011;39535;52.192;9.886;2023-03-23T00:22:54;1.47;;;1.33;;
13951;SDS011;39535;52.192;9.886;2023-03-23T00:25:25;2.03;;;1.17;;
13951;SDS011;39535;52.192;9.886;2023-03-23T00:27:51;2.17;;;1.20;;
13951;SDS011;39535;52.192;9.886;2023-03-23T00:30:19;2.10;;;1.17;;
13951;SDS011;39535;52.192;9.886;2023-03-23T00:32:47;1.37;;;1.00;;
13951;SDS011;39535;52.192;9.886;2023-03-23T00:35:13;1.73;;;1.00;;
13951;SDS011;39535;52.192;9.886;2023-03-23T00:37:40;1.70;;;1.10;;
13951;SDS011;39535;52.192;9.886;2023-03-23T00:40:07;1.07;;;0.97;;
13951;SDS011;39535;52.192;9.886;2023-03-23T00:42:34;1.90;;;1.73;;
13951;SDS011;39535;52.192;9.886;2023-03-23T00:45:03;2.33;;;1.27;;
13951;SDS011;39535;52.192;9.886;2023-03-23T00:47:36;2.30;;;1.17;;
13951;SDS011;39535;52.192;9.886;2023-03-23T00:50:03;2.00;;;1.23;;
13951;SDS011;39535;52.192;9.886;2023-03-23T00:52:30;2.07;;;1.20;;
13951;SDS011;39535;52.192;9.886;2023-03-23T00:54:57;1.30;;;1.20;;
13951;SDS011;39535;52.192;9.886;2023-03-23T00:57:23;1.93;;;1.27;;
13951;SDS011;39535;52.192;9.886;2023-03-23T00:59:50;1.87;;;1.30;;
13951;SDS011;39535;52.192;9.886;2023-03-23T01:02:16;1.53;;;1.43;;
13951;SDS011;39535;52.192;9.886;2023-03-23T01:04:45;1.87;;;1.43;;
13951;SDS011;39535;52.192;9.886;2023-03-23T01:07:17;2.27;;;1.50;;
13951;SDS011;39535;52.192;9.886;2023-03-23T01:09:43;1.57;;;1.47;;
13951;SDS011;39535;52.192;9.886;2023-03-23T01:12:12;1.80;;;1.70;;
13951;SDS011;39535;52.192;9.886;2023-03-23T01:14:39;1.40;;;1.30;;
13951;SDS011;39535;52.192;9.886;2023-03-23T01:17:06;1.83;;;1.40;;
13951;SDS011;39535;52.192;9.886;2023-03-23T01:19:32;3.33;;;2.03;;
13951;SDS011;39535;52.192;9.886;2023-03-23T01:22:01;1.90;;;1.27;;
13951;SDS011;39535;52.192;9.886;2023-03-23T01:24:27;1.77;;;1.30;;
13951;SDS011;39535;52.192;9.886;2023-03-23T01:26:54;2.60;;;1.60;;
13951;SDS011;39535;52.192;9.886;2023-03-23T01:29:20;2.33;;;1.30;;
13951;SDS011;39535;52.192;9.886;2023-03-23T01:31:46;1.30;;;1.20;;
13951;SDS011;39535;52.192;9.886;2023-03-23T01:34:13;2.07;;;1.33;;
13951;SDS011;39535;52.192;9.886;2023-03-23T01:36:39;1.40;;;1.30;;
13951;SDS011;39535;52.192;9.886;2023-03-23T01:39:07;1.93;;;1.47;;
13951;SDS011;39535;52.192;9.886;2023-03-23T01:41:34;1.70;;;1.60;;
13951;SDS011;39535;52.192;9.886;2023-03-23T01:44:01;1.30;;;1.20;;
13951;SDS011;39535;52.192;9.886;2023-03-23T01:46:29;1.40;;;0.93;;
13951;SDS011;39535;52.192;9.886;2023-03-23T01:48:58;2.13;;;1.67;;
13951;SDS011;39535;52.192;9.886;2023-03-23T01:51:31;2.33;;;1.27;;
13951;SDS011;39535;52.192;9.886;2023-03-23T01:54:00;2.23;;;1.40;;
13951;SDS011;39535;52.192;9.886;2023-03-23T01:56:32;1.43;;;1.27;;
13951;SDS011;39535;52.192;9.886;2023-03-23T01:59:06;1.73;;;1.50;;
13951;SDS011;39535;52.192;9.886;2023-03-23T02:01:33;1.40;;;1.20;;
13951;SDS011;39535;52.192;9.886;2023-03-23T02:04:03;1.20;;;1.07;;
13951;SDS011;39535;52.192;9.886;2023-03-23T02:06:30;4.93;;;1.30;;
13951;SDS011;39535;52.192;9.886;2023-03-23T02:08:57;1.73;;;1.03;;
13951;SDS011;39535;52.192;9.886;2023-03-23T02:11:23;1.20;;;1.10;;
13951;SDS011;39535;52.192;9.886;2023-03-23T02:13:51;3.97;;;1.40;;
13951;SDS011;39535;52.192;9.886;2023-03-23T02:16:21;1.23;;;1.10;;
13951;SDS011;39535;52.192;9.886;2023-03-23T02:18:57;2.27;;;1.20;;
13951;SDS011;39535;52.192;9.886;2023-03-23T02:21:52;1.63;;;1.10;;
13951;SDS011;39535;52.192;9.886;2023-03-23T02:24:39;1.70;;;1.23;;
13951;SDS011;39535;52.192;9.886;2023-03-23T02:27:20;1.87;;;1.53;;
13951;SDS011;39535;52.192;9.886;2023-03-23T02:30:22;1.40;;;1.10;;
13951;SDS011;39535;52.192;9.886;2023-03-23T02:33:17;1.50;;;1.40;;
13951;SDS011;39535;52.192;9.886;2023-03-23T02:36:01;2.17;;;1.23;;
13951;SDS011;39535;52.192;9.886;2023-03-23T02:38:32;1.30;;;1.20;;
13951;SDS011;39535;52.192;9.886;2023-03-23T02:41:01;1.40;;;1.20;;
13951;SDS011;39535;52.192;9.886;2023-03-23T02:43:30;1.93;;;1.50;;
13951;SDS011;39535;52.192;9.886;2023-03-23T02:46:01;2.23;;;1.37;;
13951;SDS011;39535;52.192;9.886;2023-03-23T02:48:33;2.87;;;1.43;;
13951;SDS011;39535;52.192;9.886;2023-03-23T02:51:01;3.03;;;1.80;;
13951;SDS011;39535;52.192;9.886;2023-03-23T02:53:30;2.27;;;1.77;;
13951;SDS011;39535;52.192;9.886;2023-03-23T02:55:59;2.03;;;1.50;;
13951;SDS011;39535;52.192;9.886;2023-03-23T02:58:27;2.00;;;1.70;;
13951;SDS011;39535;52.192;9.886;2023-03-23T03:00:54;1.73;;;1.40;;
13951;SDS011;39535;52.192;9.886;2023-03-23T03:03:22;1.20;;;1.10;;
13951;SDS011;39535;52.192;9.886;2023-03-23T03:05:53;1.77;;;1.43;;
13951;SDS011;39535;52.192;9.886;2023-03-23T03:08:29;2.10;;;1.83;;
13951;SDS011;39535;52.192;9.886;2023-03-23T03:11:04;2.03;;;1.83;;
13951;SDS011;39535;52.192;9.886;2023-03-23T03:13:36;1.33;;;1.23;;
13951;SDS011;39535;52.192;9.886;2023-03-23T03:16:14;1.47;;;1.37;;
13951;SDS011;39535;52.192;9.886;2023-03-23T03:18:50;2.00;;;1.50;;
13951;SDS011;39535;52.192;9.886;2023-03-23T03:21:25;1.63;;;1.50;;
13951;SDS011;39535;52.192;9.886;2023-03-23T03:23:54;3.17;;;1.90;;
13951;SDS011;39535;52.192;9.886;2023-03-23T03:26:25;3.20;;;1.67;;
13951;SDS011;39535;52.192;9.886;2023-03-23T03:28:53;3.07;;;1.67;;
13951;SDS011;39535;52.192;9.886;2023-03-23T03:31:21;1.77;;;1.67;;
13951;SDS011;39535;52.192;9.886;2023-03-23T03:33:52;1.77;;;1.57;;
13951;SDS011;39535;52.192;9.886;2023-03-23T03:36:20;1.70;;;1.37;;
13951;SDS011;39535;52.192;9.886;2023-03-23T03:38:51;1.70;;;1.60;;
13951;SDS011;39535;52.192;9.886;2023-03-23T03:41:18;4.17;;;1.67;;
13951;SDS011;39535;52.192;9.886;2023-03-23T03:43:45;2.10;;;1.63;;
13951;SDS011;39535;52.192;9.886;2023-03-23T03:46:12;2.40;;;1.90;;
13951;SDS011;39535;52.192;9.886;2023-03-23T03:48:38;2.40;;;1.80;;
13951;SDS011;39535;52.192;9.886;2023-03-23T03:51:05;2.93;;;1.80;;
13951;SDS011;39535;52.192;9.886;2023-03-23T03:53:31;1.77;;;1.63;;
13951;SDS011;39535;52.192;9.886;2023-03-23T03:55:59;2.33;;;1.97;;
13951;SDS011;39535;52.192;9.886;2023-03-23T03:58:26;2.10;;;1.97;;
13951;SDS011;39535;52.192;9.886;2023-03-23T04:00:56;1.70;;;1.60;;
13951;SDS011;39535;52.192;9.886;2023-03-23T04:03:23;2.03;;;1.60;;
13951;SDS011;39535;52.192;9.886;2023-03-23T04:05:50;2.10;;;1.50;;
13951;SDS011;39535;52.192;9.886;2023-03-23T04:08:17;2.20;;;2.00;;
13951;SDS011;39535;52.192;9.886;2023-03-23T04:10:44;1.83;;;1.73;;
13951;SDS011;39535;52.192;9.886;2023-03-23T04:13:11;1.80;;;1.50;;
13951;SDS011;39535;52.192;9.886;2023-03-23T04:15:38;2.40;;;1.53;;
13951;SDS011;39535;52.192;9.886;2023-03-23T04:18:04;2.03;;;1.70;;
13951;SDS011;39535;52.192;9.886;2023-03-23T04:20:31;1.60;;;1.50;;
13951;SDS011;39535;52.192;9.886;2023-03-23T04:22:59;1.67;;;1.57;;
13951;SDS011;39535;52.192;9.886;2023-03-23T04:25:27;3.10;;;1.30;;
13951;SDS011;39535;52.192;9.886;2023-03-23T04:27:53;2.00;;;1.80;;
13951;SDS011;39535;52.192;9.886;2023-03-23T04:30:21;1.70;;;1.60;;
13951;SDS011;39535;52.192;9.886;2023-03-23T04:32:50;1.53;;;1.30;;
13951;SDS011;39535;52.192;9.886;2023-03-23T04:35:17;1.87;;;1.30;;
13951;SDS011;39535;52.192;9.886;2023-03-23T04:37:45;3.13;;;1.60;;
13951;SDS011;39535;52.192;9.886;2023-03-23T04:40:12;2.30;;;1.40;;
13951;SDS011;39535;52.192;9.886;2023-03-23T04:42:40;1.40;;;1.30;;
13951;SDS011;39535;52.192;9.886;2023-03-23T04:45:10;1.40;;;1.30;;
13951;SDS011;39535;52.192;9.886;2023-03-23T04:47:41;1.37;;;1.27;;
13951;SDS011;39535;52.192;9.886;2023-03-23T04:50:14;3.13;;;1.40;;
13951;SDS011;39535;52.192;9.886;2023-03-23T04:52:40;1.93;;;1.27;;
13951;SDS011;39535;52.192;9.886;2023-03-23T04:55:10;1.47;;;1.33;;
13951;SDS011;39535;52.192;9.886;2023-03-23T04:57:37;1.53;;;1.43;;
13951;SDS011;39535;52.192;9.886;2023-03-23T05:00:05;1.93;;;1.40;;
13951;SDS011;39535;52.192;9.886;2023-03-23T05:02:34;1.10;;;1.00;;
13951;SDS011;39535;52.192;9.886;2023-03-23T05:05:02;1.53;;;1.10;;
13951;SDS011;39535;52.192;9.886;2023-03-23T05:07:29;3.17;;;1.37;;
13951;SDS011;39535;52.192;9.886;2023-03-23T05:09:55;1.33;;;1.10;;
13951;SDS011;39535;52.192;9.886;2023-03-23T05:12:21;1.10;;;1.00;;
13951;SDS011;39535;52.192;9.886;2023-03-23T05:14:48;1.20;;;1.10;;
13951;SDS011;39535;52.192;9.886;2023-03-23T05:17:14;1.90;;;1.30;;
13951;SDS011;39535;52.192;9.886;2023-03-23T05:19:41;1.27;;;1.20;;
13951;SDS011;39535;52.192;9.886;2023-03-23T05:22:10;1.63;;;1.40;;
13951;SDS011;39535;52.192;9.886;2023-03-23T05:24:37;1.20;;;1.10;;
13951;SDS011;39535;52.192;9.886;2023-03-23T05:27:04;0.70;;;0.70;;
13951;SDS011;39535;52.192;9.886;2023-03-23T05:29:32;0.87;;;0.87;;
13951;SDS011;39535;52.192;9.886;2023-03-23T05:32:01;0.97;;;0.83;;
13951;SDS011;39535;52.192;9.886;2023-03-23T05:34:27;1.47;;;0.83;;
13951;SDS011;39535;52.192;9.886;2023-03-23T05:36:54;3.50;;;0.80;;
13951;SDS011;39535;52.192;9.886;2023-03-23T05:39:21;1.23;;;0.90;;
13951;SDS011;39535;52.192;9.886;2023-03-23T05:41:48;1.20;;;0.90;;
13951;SDS011;39535;52.192;9.886;2023-03-23T05:44:14;1.27;;;0.77;;
13951;SDS011;39535;52.192;9.886;2023-03-23T05:46:40;0.63;;;0.63;;
13951;SDS011;39535;52.192;9.886;2023-03-23T05:49:07;0.60;;;0.60;;
13951;SDS011;39535;52.192;9.886;2023-03-23T05:51:33;2.07;;;0.90;;
13951;SDS011;39535;52.192;9.886;2023-03-23T05:54:00;1.33;;;0.60;;
13951;SDS011;39535;52.192;9.886;2023-03-23T05:56:29;0.80;;;0.80;;
13951;SDS011;39535;52.192;9.886;2023-03-23T05:58:56;0.80;;;0.80;;
13951;SDS011;39535;52.192;9.886;2023-03-23T06:01:22;2.23;;;0.87;;
13951;SDS011;39535;52.192;9.886;2023-03-23T06:03:49;1.27;;;0.80;;
13951;SDS011;39535;52.192;9.886;2023-03-23T06:06:18;0.80;;;0.53;;
13951;SDS011;39535;52.192;9.886;2023-03-23T06:08:45;0.93;;;0.70;;
13951;SDS011;39535;52.192;9.886;2023-03-23T06:11:11;1.27;;;0.97;;
13951;SDS011;39535;52.192;9.886;2023-03-23T06:13:39;0.70;;;0.70;;
13951;SDS011;39535;52.192;9.886;2023-03-23T06:16:06;1.20;;;0.80;;
13951;SDS011;39535;52.192;9.886;2023-03-23T06:18:33;1.10;;;0.87;;
13951;SDS011;39535;52.192;9.886;2023-03-23T06:21:02;1.10;;;0.80;;
13951;SDS011;39535;52.192;9.886;2023-03-23T06:23:28;0.93;;;0.73;;
13951;SDS011;39535;52.192;9.886;2023-03-23T06:25:55;1.00;;;0.73;;
13951;SDS011;39535;52.192;9.886;2023-03-23T06:28:24;1.47;;;1.00;;
13951;SDS011;39535;52.192;9.886;2023-03-23T06:30:53;1.20;;;1.10;;
13951;SDS011;39535;52.192;9.886;2023-03-23T06:33:20;0.80;;;0.73;;
13951;SDS011;39535;52.192;9.886;2023-03-23T06:35:46;0.80;;;0.80;;
13951;SDS011;39535;52.192;9.886;2023-03-23T06:38:13;0.93;;;0.80;;
13951;SDS011;39535;52.192;9.886;2023-03-23T06:40:39;0.90;;;0.60;;
13951;SDS011;39535;52.192;9.886;2023-03-23T06:43:06;1.20;;;0.80;;
13951;SDS011;39535;52.192;9.886;2023-03-23T06:45:33;0.97;;;0.80;;
13951;SDS011;39535;52.192;9.886;2023-03-23T06:48:00;0.93;;;0.90;;
13951;SDS011;39535;52.192;9.886;2023-03-23T06:50:27;1.47;;;0.80;;
13951;SDS011;39535;52.192;9.886;2023-03-23T06:52:53;1.00;;;0.90;;
13951;SDS011;39535;52.192;9.886;2023-03-23T06:55:19;0.87;;;0.80;;
13951;SDS011;39535;52.192;9.886;2023-03-23T06:57:46;2.40;;;0.90;;
13951;SDS011;39535;52.192;9.886;2023-03-23T07:00:13;2.03;;;1.00;;
13951;SDS011;39535;52.192;9.886;2023-03-23T07:02:40;0.83;;;0.83;;
13951;SDS011;39535;52.192;9.886;2023-03-23T07:05:08;1.90;;;0.80;;
13951;SDS011;39535;52.192;9.886;2023-03-23T07:07:35;1.43;;;0.70;;
13951;SDS011;39535;52.192;9.886;2023-03-23T07:10:02;1.27;;;0.80;;
13951;SDS011;39535;52.192;9.886;2023-03-23T07:12:29;0.90;;;0.90;;
13951;SDS011;39535;52.192;9.886;2023-03-23T07:14:55;1.10;;;0.87;;
13951;SDS011;39535;52.192;9.886;2023-03-23T07:17:22;0.80;;;0.80;;
13951;SDS011;39535;52.192;9.886;2023-03-23T07:19:48;1.20;;;1.10;;
13951;SDS011;39535;52.192;9.886;2023-03-23T07:22:16;1.33;;;0.97;;
13951;SDS011;39535;52.192;9.886;2023-03-23T07:24:42;1.37;;;1.00;;
13951;SDS011;39535;52.192;9.886;2023-03-23T07:27:09;1.27;;;1.00;;
13951;SDS011;39535;52.192;9.886;2023-03-23T07:29:35;1.00;;;0.90;;
13951;SDS011;39535;52.192;9.886;2023-03-23T07:32:03;1.13;;;0.83;;
13951;SDS011;39535;52.192;9.886;2023-03-23T07:34:30;0.70;;;0.70;;
13951;SDS011;39535;52.192;9.886;2023-03-23T07:36:57;1.00;;;0.90;;
13951;SDS011;39535;52.192;9.886;2023-03-23T07:39:25;1.10;;;1.00;;
13951;SDS011;39535;52.192;9.886;2023-03-23T07:41:52;1.20;;;1.07;;
13951;SDS011;39535;52.192;9.886;2023-03-23T07:44:18;1.13;;;1.07;;
13951;SDS011;39535;52.192;9.886;2023-03-23T07:46:44;1.10;;;1.10;;
13951;SDS011;39535;52.192;9.886;2023-03-23T07:49:11;1.90;;;1.17;;
13951;SDS011;39535;52.192;9.886;2023-03-23T07:51:38;1.27;;;1.07;;
13951;SDS011;39535;52.192;9.886;2023-03-23T07:54:05;1.10;;;1.10;;
13951;SDS011;39535;52.192;9.886;2023-03-23T07:56:34;1.37;;;1.27;;
13951;SDS011;39535;52.192;9.886;2023-03-23T07:59:01;0.93;;;0.90;;
13951;SDS011;39535;52.192;9.886;2023-03-23T08:01:29;1.20;;;1.00;;
13951;SDS011;39535;52.192;9.886;2023-03-23T08:03:57;1.63;;;1.13;;
13951;SDS011;39535;52.192;9.886;2023-03-23T08:06:24;2.63;;;1.20;;
13951;SDS011;39535;52.192;9.886;2023-03-23T08:08:51;0.80;;;0.80;;
13951;SDS011;39535;52.192;9.886;2023-03-23T08:11:18;1.47;;;1.30;;
13951;SDS011;39535;52.192;9.886;2023-03-23T08:13:45;1.00;;;1.00;;
13951;SDS011;39535;52.192;9.886;2023-03-23T08:16:12;2.13;;;1.20;;
13951;SDS011;39535;52.192;9.886;2023-03-23T08:18:39;1.50;;;1.00;;
13951;SDS011;39535;52.192;9.886;2023-03-23T08:21:06;1.20;;;1.10;;
13951;SDS011;39535;52.192;9.886;2023-03-23T08:23:34;1.40;;;1.20;;
13951;SDS011;39535;52.192;9.886;2023-03-23T08:26:01;1.87;;;1.37;;
13951;SDS011;39535;52.192;9.886;2023-03-23T08:28:28;2.30;;;1.30;;
13951;SDS011;39535;52.192;9.886;2023-03-23T08:30:55;1.40;;;1.30;;
13951;SDS011;39535;52.192;9.886;2023-03-23T08:33:22;1.43;;;1.30;;
13951;SDS011;39535;52.192;9.886;2023-03-23T08:35:54;1.60;;;1.10;;
13951;SDS011;39535;52.192;9.886;2023-03-23T08:38:21;1.67;;;1.10;;
13951;SDS011;39535;52.192;9.886;2023-03-23T08:40:48;1.63;;;1.30;;
13951;SDS011;39535;52.192;9.886;2023-03-23T08:43:15;1.83;;;1.07;;
13951;SDS011;39535;52.192;9.886;2023-03-23T08:45:41;2.63;;;1.50;;
13951;SDS011;39535;52.192;9.886;2023-03-23T08:48:09;1.37;;;1.27;;
13951;SDS011;39535;52.192;9.886;2023-03-23T08:50:36;3.57;;;1.30;;
13951;SDS011;39535;52.192;9.886;2023-03-23T08:53:03;2.20;;;1.50;;
13951;SDS011;39535;52.192;9.886;2023-03-23T08:55:29;1.37;;;1.20;;
13951;SDS011;39535;52.192;9.886;2023-03-23T08:57:55;3.57;;;1.23;;
13951;SDS011;39535;52.192;9.886;2023-03-23T09:00:22;2.47;;;1.30;;
13951;SDS011;39535;52.192;9.886;2023-03-23T09:02:51;3.03;;;1.33;;
13951;SDS011;39535;52.192;9.886;2023-03-23T09:05:21;1.60;;;1.30;;
13951;SDS011;39535;52.192;9.886;2023-03-23T09:07:50;1.57;;;1.13;;
13951;SDS011;39535;52.192;9.886;2023-03-23T09:10:18;1.53;;;1.30;;
13951;SDS011;39535;52.192;9.886;2023-03-23T09:12:45;2.30;;;1.30;;
13951;SDS011;39535;52.192;9.886;2023-03-23T09:15:13;2.50;;;1.20;;
13951;SDS011;39535;52.192;9.886;2023-03-23T09:17:42;2.70;;;1.20;;
13951;SDS011;39535;52.192;9.886;2023-03-23T09:20:11;2.20;;;1.40;;
13951;SDS011;39535;52.192;9.886;2023-03-23T09:22:41;3.07;;;1.30;;
13951;SDS011;39535;52.192;9.886;2023-03-23T09:25:09;1.93;;;1.20;;
13951;SDS011;39535;52.192;9.886;2023-03-23T09:27:36;2.57;;;1.20;;
13951;SDS011;39535;52.192;9.886;2023-03-23T09:30:04;1.60;;;1.20;;
13951;SDS011;39535;52.192;9.886;2023-03-23T09:32:32;1.80;;;1.60;;
13951;SDS011;39535;52.192;9.886;2023-03-23T09:34:59;5.67;;;2.10;;
13951;SDS011;39535;52.192;9.886;2023-03-23T09:37:26;2.17;;;1.53;;
13951;SDS011;39535;52.192;9.886;2023-03-23T09:39:54;3.33;;;1.43;;
13951;SDS011;39535;52.192;9.886;2023-03-23T09:42:25;2.63;;;1.30;;
13951;SDS011;39535;52.192;9.886;2023-03-23T09:45:03;1.40;;;1.30;;
13951;SDS011;39535;52.192;9.886;2023-03-23T09:47:37;2.83;;;1.70;;
13951;SDS011;39535;52.192;9.886;2023-03-23T09:50:10;1.83;;;1.00;;
13951;SDS011;39535;52.192;9.886;2023-03-23T09:52:42;2.97;;;1.33;;
13951;SDS011;39535;52.192;9.886;2023-03-23T09:55:12;3.00;;;1.50;;
13951;SDS011;39535;52.192;9.886;2023-03-23T09:57:43;1.63;;;1.50;;
13951;SDS011;39535;52.192;9.886;2023-03-23T10:00:14;2.10;;;1.50;;
13951;SDS011;39535;52.192;9.886;2023-03-23T10:02:46;5.57;;;1.50;;
13951;SDS011;39535;52.192;9.886;2023-03-23T10:05:23;2.80;;;1.33;;
13951;SDS011;39535;52.192;9.886;2023-03-23T10:07:55;3.03;;;1.50;;
13951;SDS011;39535;52.192;9.886;2023-03-23T10:10:24;3.10;;;1.30;;
13951;SDS011;39535;52.192;9.886;2023-03-23T10:12:56;3.43;;;1.30;;
13951;SDS011;39535;52.192;9.886;2023-03-23T10:15:29;1.67;;;1.20;;
13951;SDS011;39535;52.192;9.886;2023-03-23T10:17:59;3.20;;;1.50;;
13951;SDS011;39535;52.192;9.886;2023-03-23T10:20:33;3.33;;;1.43;;
13951;SDS011;39535;52.192;9.886;2023-03-23T10:23:10;2.83;;;1.60;;
13951;SDS011;39535;52.192;9.886;2023-03-23T10:25:42;2.23;;;1.30;;
13951;SDS011;39535;52.192;9.886;2023-03-23T10:28:15;2.57;;;1.50;;
13951;SDS011;39535;52.192;9.886;2023-03-23T10:30:46;2.27;;;1.67;;
13951;SDS011;39535;52.192;9.886;2023-03-23T10:33:18;3.50;;;2.20;;
13951;SDS011;39535;52.192;9.886;2023-03-23T10:35:50;3.60;;;1.47;;
13951;SDS011;39535;52.192;9.886;2023-03-23T10:38:26;4.53;;;1.47;;
13951;SDS011;39535;52.192;9.886;2023-03-23T10:40:58;5.27;;;1.90;;
13951;SDS011;39535;52.192;9.886;2023-03-23T10:43:28;5.03;;;1.90;;
13951;SDS011;39535;52.192;9.886;2023-03-23T10:45:55;4.13;;;1.70;;
13951;SDS011;39535;52.192;9.886;2023-03-23T10:48:29;1.97;;;1.50;;
13951;SDS011;39535;52.192;9.886;2023-03-23T10:51:00;3.77;;;1.80;;
13951;SDS011;39535;52.192;9.886;2023-03-23T10:53:29;3.53;;;1.70;;
13951;SDS011;39535;52.192;9.886;2023-03-23T10:55:59;3.37;;;1.57;;
13951;SDS011;39535;52.192;9.886;2023-03-23T10:58:27;2.47;;;1.63;;
13951;SDS011;39535;52.192;9.886;2023-03-23T11:00:55;3.50;;;1.23;;
13951;SDS011;39535;52.192;9.886;2023-03-23T11:03:24;4.07;;;1.67;;
13951;SDS011;39535;52.192;9.886;2023-03-23T11:05:55;4.73;;;1.83;;
13951;SDS011;39535;52.192;9.886;2023-03-23T11:08:24;3.00;;;1.30;;
13951;SDS011;39535;52.192;9.886;2023-03-23T11:10:54;3.87;;;1.37;;
13951;SDS011;39535;52.192;9.886;2023-03-23T11:13:27;2.80;;;1.20;;
13951;SDS011;39535;52.192;9.886;2023-03-23T11:15:56;4.03;;;1.47;;
13951;SDS011;39535;52.192;9.886;2023-03-23T11:18:23;4.43;;;1.57;;
13951;SDS011;39535;52.192;9.886;2023-03-23T11:20:53;5.63;;;1.30;;
13951;SDS011;39535;52.192;9.886;2023-03-23T11:23:22;3.77;;;1.33;;
13951;SDS011;39535;52.192;9.886;2023-03-23T11:26:08;1.53;;;1.40;;
13951;SDS011;39535;52.192;9.886;2023-03-23T11:28:43;2.30;;;1.50;;
13951;SDS011;39535;52.192;9.886;2023-03-23T11:31:12;2.13;;;1.60;;
13951;SDS011;39535;52.192;9.886;2023-03-23T11:33:52;3.63;;;2.00;;
13951;SDS011;39535;52.192;9.886;2023-03-23T11:36:27;3.33;;;1.80;;
13951;SDS011;39535;52.192;9.886;2023-03-23T11:38:56;3.67;;;1.30;;
13951;SDS011;39535;52.192;9.886;2023-03-23T11:41:23;2.67;;;1.30;;
13951;SDS011;39535;52.192;9.886;2023-03-23T11:43:52;3.33;;;1.70;;
13951;SDS011;39535;52.192;9.886;2023-03-23T11:46:25;3.47;;;1.63;;
13951;SDS011;39535;52.192;9.886;2023-03-23T11:49:00;1.90;;;1.57;;
13951;SDS011;39535;52.192;9.886;2023-03-23T11:51:31;3.23;;;1.47;;
13951;SDS011;39535;52.192;9.886;2023-03-23T11:54:05;2.87;;;1.40;;
13951;SDS011;39535;52.192;9.886;2023-03-23T11:56:42;3.00;;;1.53;;
13951;SDS011;39535;52.192;9.886;2023-03-23T11:59:12;3.13;;;1.80;;
13951;SDS011;39535;52.192;9.886;2023-03-23T12:01:43;3.87;;;1.83;;
13951;SDS011;39535;52.192;9.886;2023-03-23T12:04:26;3.13;;;1.53;;
13951;SDS011;39535;52.192;9.886;2023-03-23T12:07:01;3.53;;;1.60;;
13951;SDS011;39535;52.192;9.886;2023-03-23T12:09:39;2.60;;;1.40;;
13951;SDS011;39535;52.192;9.886;2023-03-23T12:12:15;3.57;;;1.50;;
13951;SDS011;39535;52.192;9.886;2023-03-23T12:14:50;2.77;;;1.40;;
13951;SDS011;39535;52.192;9.886;2023-03-23T12:17:24;6.00;;;2.27;;
13951;SDS011;39535;52.192;9.886;2023-03-23T12:20:01;3.57;;;1.67;;
13951;SDS011;39535;52.192;9.886;2023-03-23T12:22:44;3.03;;;1.30;;
13951;SDS011;39535;52.192;9.886;2023-03-23T12:25:33;2.47;;;1.50;;
13951;SDS011;39535;52.192;9.886;2023-03-23T12:28:20;2.33;;;1.60;;
13951;SDS011;39535;52.192;9.886;2023-03-23T12:30:57;4.73;;;1.70;;
13951;SDS011;39535;52.192;9.886;2023-03-23T12:33:34;5.23;;;1.73;;
13951;SDS011;39535;52.192;9.886;2023-03-23T12:36:14;2.47;;;1.57;;
13951;SDS011;39535;52.192;9.886;2023-03-23T12:38:54;3.80;;;1.70;;
13951;SDS011;39535;52.192;9.886;2023-03-23T12:41:31;4.17;;;2.13;;
13951;SDS011;39535;52.192;9.886;2023-03-23T12:44:06;2.67;;;1.30;;
13951;SDS011;39535;52.192;9.886;2023-03-23T12:46:44;1.13;;;0.70;;
13951;SDS011;39535;52.192;9.886;2023-03-23T12:49:18;0.87;;;0.50;;
13951;SDS011;39535;52.192;9.886;2023-03-23T12:51:55;2.23;;;0.60;;
13951;SDS011;39535;52.192;9.886;2023-03-23T12:54:27;1.27;;;0.80;;
13951;SDS011;39535;52.192;9.886;2023-03-23T12:56:59;0.83;;;0.83;;
13951;SDS011;39535;52.192;9.886;2023-03-23T12:59:34;1.57;;;1.00;;
13951;SDS011;39535;52.192;9.886;2023-03-23T13:02:10;1.17;;;1.00;;
13951;SDS011;39535;52.192;9.886;2023-03-23T13:04:43;1.43;;;1.27;;
13951;SDS011;39535;52.192;9.886;2023-03-23T13:07:12;0.80;;;0.80;;
13951;SDS011;39535;52.192;9.886;2023-03-23T13:09:46;0.83;;;0.80;;
13951;SDS011;39535;52.192;9.886;2023-03-23T13:12:16;0.97;;;0.87;;
13951;SDS011;39535;52.192;9.886;2023-03-23T13:14:45;1.20;;;1.00;;
13951;SDS011;39535;52.192;9.886;2023-03-23T13:17:22;1.20;;;0.50;;
13951;SDS011;39535;52.192;9.886;2023-03-23T13:19:59;1.10;;;0.57;;
13951;SDS011;39535;52.192;9.886;2023-03-23T13:22:37;0.50;;;0.50;;
13951;SDS011;39535;52.192;9.886;2023-03-23T13:25:08;0.60;;;0.40;;
13951;SDS011;39535;52.192;9.886;2023-03-23T13:27:40;0.60;;;0.50;;
13951;SDS011;39535;52.192;9.886;2023-03-23T13:30:16;1.87;;;0.50;;
13951;SDS011;39535;52.192;9.886;2023-03-23T13:32:49;1.53;;;0.60;;
13951;SDS011;39535;52.192;9.886;2023-03-23T13:35:16;0.47;;;0.40;;
13951;SDS011;39535;52.192;9.886;2023-03-23T13:37:46;1.50;;;0.57;;
13951;SDS011;39535;52.192;9.886;2023-03-23T13:40:16;0.43;;;0.40;;
13951;SDS011;39535;52.192;9.886;2023-03-23T13:42:51;1.13;;;0.40;;
13951;SDS011;39535;52.192;9.886;2023-03-23T13:45:20;0.80;;;0.30;;
13951;SDS011;39535;52.192;9.886;2023-03-23T13:48:01;0.90;;;0.50;;
13951;SDS011;39535;52.192;9.886;2023-03-23T13:50:29;1.10;;;0.43;;
13951;SDS011;39535;52.192;9.886;2023-03-23T13:52:58;0.33;;;0.33;;
13951;SDS011;39535;52.192;9.886;2023-03-23T13:55:41;1.67;;;0.50;;
13951;SDS011;39535;52.192;9.886;2023-03-23T13:58:10;0.27;;;0.23;;
13951;SDS011;39535;52.192;9.886;2023-03-23T14:00:45;1.00;;;0.53;;
13951;SDS011;39535;52.192;9.886;2023-03-23T14:03:16;0.60;;;0.50;;
13951;SDS011;39535;52.192;9.886;2023-03-23T14:05:47;1.40;;;0.37;;
13951;SDS011;39535;52.192;9.886;2023-03-23T14:08:21;1.10;;;0.40;;
13951;SDS011;39535;52.192;9.886;2023-03-23T14:10:51;0.77;;;0.40;;
13951;SDS011;39535;52.192;9.886;2023-03-23T14:13:23;1.20;;;0.37;;
13951;SDS011;39535;52.192;9.886;2023-03-23T14:15:56;1.53;;;0.63;;
13951;SDS011;39535;52.192;9.886;2023-03-23T14:18:27;0.57;;;0.50;;
13951;SDS011;39535;52.192;9.886;2023-03-23T14:20:57;1.97;;;0.60;;
13951;SDS011;39535;52.192;9.886;2023-03-23T14:23:25;0.60;;;0.57;;
13951;SDS011;39535;52.192;9.886;2023-03-23T14:25:54;2.27;;;1.00;;
13951;SDS011;39535;52.192;9.886;2023-03-23T14:28:23;1.33;;;0.80;;
13951;SDS011;39535;52.192;9.886;2023-03-23T14:30:53;1.77;;;0.90;;
13951;SDS011;39535;52.192;9.886;2023-03-23T14:33:22;1.27;;;1.00;;
13951;SDS011;39535;52.192;9.886;2023-03-23T14:35:52;2.37;;;1.10;;
13951;SDS011;39535;52.192;9.886;2023-03-23T14:38:20;0.77;;;0.77;;
13951;SDS011;39535;52.192;9.886;2023-03-23T14:40:49;1.63;;;1.00;;
13951;SDS011;39535;52.192;9.886;2023-03-23T14:43:16;1.17;;;1.07;;
13951;SDS011;39535;52.192;9.886;2023-03-23T14:45:45;1.60;;;1.03;;
13951;SDS011;39535;52.192;9.886;2023-03-23T14:48:14;1.33;;;1.10;;
13951;SDS011;39535;52.192;9.886;2023-03-23T14:50:42;2.80;;;1.57;;
13951;SDS011;39535;52.192;9.886;2023-03-23T14:53:18;3.50;;;1.10;;
13951;SDS011;39535;52.192;9.886;2023-03-23T14:55:48;1.23;;;0.80;;
13951;SDS011;39535;52.192;9.886;2023-03-23T14:58:17;1.63;;;1.20;;
13951;SDS011;39535;52.192;9.886;2023-03-23T15:00:46;1.63;;;1.30;;
13951;SDS011;39535;52.192;9.886;2023-03-23T15:03:19;1.43;;;1.23;;